Terminal Aerodrome Forecast
Issued by NWS

Home | Current Version | Previous Version | Text Only | Print | Product List | Glossary On
Versions: 1 2 3 4 5 6 7 8 9 10 11 12 13 14 15
462
FTUS44 KTSA 141140
TAFBVO
TAF
KBVO 141140Z 1412/1512 36008KT P6SM BKN025
      TEMPO 1413/1415 35008KT 5SM -DZ BR BKN015
     FM141600 02006KT P6SM SCT025 BKN250
     FM141800 VRB04KT P6SM SCT250=

USA.gov is the U.S. government's official web portal to all federal, state and local government web resources and services.